Detalii statie AGRIND TASNAD [0000197A]

Toti senzorii

Date Temperatura solului [C]Precipitatii [mm]Voltaj baterie [mV]Leaf Wetness [Min]HC Air temperature [C]HC Relative humidity [%]Punctul de roua [C]
medieminmaxsumaultimatimpmedieminmaxmediemediemin
2019-10-19 23:00:00 14.8 14.7 14.9 0 6922 13.17 13.17 13.17 88.37 11.2 11.2
2019-10-19 23:10:00 14.8 14.8 14.9 0 6864 13.25 13.23 13.27 88.18 11.3 11.3
2019-10-19 23:20:00 14.7 14.7 14.7 0 6894 13.18 13.12 13.24 88.73 11.2 11.2
2019-10-19 23:30:00 14.7 14.7 14.8 0 6904 13.17 13.16 13.19 88.83 11.2 11.2
2019-10-19 23:40:00 14.7 14.7 14.8 0 6864 13.03 12.92 13.14 88.89 11.1 11.1
2019-10-19 23:50:00 14.6 14.6 14.6 0 6894 12.89 12.86 12.92 90.1 11.2 11.2
2019-10-20 00:00:00 14.6 14.5 14.7 0 6904 12.79 12.79 12.8 90.51 11.1 11.1
2019-10-20 00:10:00 14.5 14.5 14.5 0 6844 12.68 12.65 12.72 90.9 11.1 11.1
2019-10-20 00:20:00 14.5 14.5 14.5 0 6884 12.6 12.58 12.62 91.64 11.1 11.1
2019-10-20 00:30:00 14.5 14.5 14.5 0 6894 12.68 12.66 12.7 91.51 11.2 11.2
2019-10-20 00:40:00 14.5 14.4 14.6 0 6904 12.67 12.59 12.75 91.19 11.2 11.1
2019-10-20 00:50:00 14.3 14.3 14.4 0 6914 12.71 12.61 12.82 91.89 11.3 11.2
2019-10-20 01:00:00 14.3 14.2 14.4 0 6904 13.05 13.03 13.07 90.66 11.4 11.4
2019-10-20 01:10:00 14.3 14.2 14.4 0 6864 13.07 13.06 13.08 90.14 11.3 11.2
2019-10-20 01:20:00 14.3 14.3 14.4 0 6894 12.99 12.88 13.11 90.24 11.3 11.2
2019-10-20 01:30:00 14.2 14.1 14.3 0 6894 12.57 12.48 12.66 91.7 11.1 11.1
2019-10-20 01:40:00 14.3 14.3 14.3 0 6904 12.39 12.37 12.42 93.62 11.2 11.2
2019-10-20 01:50:00 14.2 14.1 14.3 0 6904 12.33 12.27 12.4 94.21 11.4 11.3
2019-10-20 02:00:00 14.1 14.1 14.2 0 6914 12.26 12.22 12.31 95.09 11.4 11.3
2019-10-20 02:10:00 14.1 14.1 14.1 0 6864 12.08 12.06 12.1 95.84 11.3 11.3
2019-10-20 02:20:00 14.1 14 14.2 0 6884 12.08 12.06 12.11 96.47 11.4 11.4
2019-10-20 02:30:00 14.1 14 14.2 0 6894 12.19 12.13 12.25 96.42 11.5 11.5
2019-10-20 02:40:00 14.1 14.1 14.2 0 6894 12.23 12.21 12.25 96.02 11.5 11.4
2019-10-20 02:50:00 14 14 14.1 0 6904 12.2 12.2 12.21 95.94 11.5 11.4
2019-10-20 03:00:00 13.9 13.9 14 0 6904 12.28 12.27 12.29 96.08 11.5 11.4
2019-10-20 03:10:00 14 13.9 14.1 0 6844 12.13 12.11 12.16 96.27 11.5 11.5
2019-10-20 03:20:00 13.9 13.9 13.9 0 6874 12.01 11.97 12.06 97.07 11.4 11.3
2019-10-20 03:30:00 13.9 13.9 13.9 0 6884 11.97 11.87 12.07 97.29 11.4 11.3
2019-10-20 03:40:00 13.9 13.9 14 0 6844 11.83 11.78 11.88 98.07 11.4 11.4
2019-10-20 03:50:00 13.8 13.8 13.8 0 6874 11.5 11.45 11.55 98.82 11.2 11.2
2019-10-20 04:00:00 13.8 13.8 13.8 0 6884 11.27 11.24 11.31 99.99 11.1 11.1
2019-10-20 04:10:00 13.8 13.8 13.8 0 6844 11.28 11.27 11.29 100 11.2 11.2
2019-10-20 04:20:00 13.7 13.6 13.8 0 6874 11.22 11.17 11.27 100 11.1 11.1
2019-10-20 04:30:00 13.7 13.7 13.7 0 6874 11.43 11.31 11.55 100 11.4 11.3
2019-10-20 04:40:00 13.7 13.7 13.7 0 6884 11.83 11.76 11.91 99.92 11.7 11.7
2019-10-20 04:50:00 13.6 13.6 13.7 0 6884 11.85 11.84 11.87 98.6 11.5 11.5
2019-10-20 05:00:00 13.6 13.5 13.7 0 6884 11.83 11.81 11.86 98.38 11.5 11.5
2019-10-20 05:10:00 13.6 13.5 13.7 0 6844 11.48 11.29 11.67 98.4 11.1 10.9
2019-10-20 05:20:00 13.5 13.5 13.6 0 6864 10.63 10.46 10.81 99.6 10.4 10.2
2019-10-20 05:30:00 13.6 13.6 13.6 0 6864 10.14 9.81 10.47 100 10.1 9.8
2019-10-20 05:40:00 13.4 13.4 13.4 0 6884 9.31 9.13 9.5 100 9.3 9.1
2019-10-20 05:50:00 13.4 13.4 13.4 0 6884 9.76 9.68 9.84 100 9.7 9.6
2019-10-20 06:00:00 13.4 13.4 13.4 0 6884 9.39 9.29 9.49 100 9.3 9.2
2019-10-20 06:10:00 13.4 13.4 13.4 0 6834 9.71 9.7 9.72 100 9.7 9.7
2019-10-20 06:20:00 13.3 13.3 13.3 0 6854 9.8 9.74 9.86 100 9.7 9.7
2019-10-20 06:30:00 13.2 13.2 13.3 0 6854 9.65 9.53 9.78 100 9.6 9.5
2019-10-20 06:40:00 13.3 13.3 13.3 0 6864 10.08 9.82 10.34 100 10 9.8
2019-10-20 06:50:00 13.3 13.3 13.3 0 6864 10.62 10.5 10.74 100 10.6 10.5